Time;durP1;ratioP1;P1;durP2;ratioP2;P2;SDS_P1;SDS_P2;PMS_P1;PMS_P2;Temp;Humidity;BMP_temperature;BMP_pressure;BME280_temperature;BME280_humidity;BME280_pressure;Samples;Min_cycle;Max_cycle;Signal;HPM_P1;HPM_P2
2024/03/22 00:01:48;;;;;;;6.05;1.95;;;12.20;99.90;;;;;;5006676;28;20042;-64
2024/03/22 00:04:14;;;;;;;4.82;2.25;;;12.20;99.90;;;;;;5011685;28;20403;-64
2024/03/22 00:06:41;;;;;;;5.00;2.10;;;12.20;99.90;;;;;;5010727;28;20099;-64
2024/03/22 00:09:07;;;;;;;3.67;1.75;;;12.10;99.90;;;;;;5012992;28;20454;-64
2024/03/22 00:11:33;;;;;;;3.38;2.10;;;12.10;99.90;;;;;;5005372;28;20041;-63
2024/03/22 00:13:59;;;;;;;3.75;2.15;;;12.10;99.90;;;;;;5008153;28;20431;-64
2024/03/22 00:16:25;;;;;;;3.90;1.90;;;12.00;99.90;;;;;;5008951;28;20138;-64
2024/03/22 00:18:51;;;;;;;9.60;2.28;;;12.00;99.90;;;;;;5010472;28;20093;-63
2024/03/22 00:21:16;;;;;;;3.75;2.17;;;12.10;99.90;;;;;;5008761;28;20042;-63
2024/03/22 00:23:44;;;;;;;8.20;2.28;;;12.00;99.90;;;;;;5009133;28;20102;-63
2024/03/22 00:26:10;;;;;;;6.22;2.00;;;12.00;99.90;;;;;;5009445;28;20066;-63
2024/03/22 00:28:36;;;;;;;4.53;2.00;;;12.00;99.90;;;;;;5008592;28;20056;-64
2024/03/22 00:31:02;;;;;;;7.68;2.22;;;12.00;99.90;;;;;;5002444;28;20052;-64
2024/03/22 00:33:27;;;;;;;8.70;3.35;;;12.00;99.90;;;;;;5010006;28;20082;-63
2024/03/22 00:35:53;;;;;;;4.03;2.22;;;11.90;99.90;;;;;;5001830;28;20125;-64
2024/03/22 00:38:19;;;;;;;3.78;2.22;;;11.90;99.90;;;;;;5007428;28;20041;-63
2024/03/22 00:40:45;;;;;;;7.00;2.10;;;11.80;99.90;;;;;;5002081;28;20506;-63
2024/03/22 00:43:10;;;;;;;8.60;1.98;;;11.70;99.90;;;;;;5009970;28;20046;-63
2024/03/22 00:45:36;;;;;;;4.65;2.30;;;11.60;99.90;;;;;;5009020;28;20051;-63
2024/03/22 00:48:02;;;;;;;2.58;1.95;;;11.50;99.90;;;;;;5008621;28;20042;-64
2024/03/22 00:50:28;;;;;;;9.60;2.75;;;11.50;99.90;;;;;;5010904;28;20081;-63
2024/03/22 00:52:57;;;;;;;4.47;1.92;;;11.50;99.90;;;;;;5006660;28;20088;-63
2024/03/22 00:55:24;;;;;;;8.15;2.55;;;11.40;99.90;;;;;;5007785;28;20065;-64
2024/03/22 00:57:50;;;;;;;11.23;2.60;;;11.40;99.90;;;;;;5004882;28;20100;-64
2024/03/22 01:00:16;;;;;;;3.78;2.00;;;11.30;99.90;;;;;;5011183;28;20499;-64
2024/03/22 01:02:42;;;;;;;7.50;2.78;;;11.20;99.90;;;;;;5008523;28;20048;-64
2024/03/22 01:05:08;;;;;;;8.70;2.33;;;11.10;99.90;;;;;;5012263;28;20054;-63
2024/03/22 01:07:35;;;;;;;7.97;2.28;;;11.00;99.90;;;;;;5007699;28;20057;-64
2024/03/22 01:10:01;;;;;;;5.07;2.22;;;10.90;99.90;;;;;;5007316;28;20053;-64
2024/03/22 01:12:26;;;;;;;8.52;2.58;;;10.80;99.90;;;;;;5006980;28;20103;-63
2024/03/22 01:14:53;;;;;;;7.28;2.42;;;10.70;99.90;;;;;;5011106;28;20414;-63
2024/03/22 01:17:19;;;;;;;6.03;2.72;;;10.60;99.90;;;;;;5005490;28;20053;-63
2024/03/22 01:19:45;;;;;;;6.60;2.80;;;10.50;99.90;;;;;;5006491;28;20075;-63
2024/03/22 01:22:10;;;;;;;5.78;3.22;;;10.50;99.90;;;;;;5005489;28;20057;-63
2024/03/22 01:24:36;;;;;;;3.92;2.55;;;10.40;99.90;;;;;;5011491;28;20059;-63
2024/03/22 01:27:02;;;;;;;6.55;2.80;;;10.40;99.90;;;;;;5008475;28;20603;-63
2024/03/22 01:29:31;;;;;;;7.65;3.03;;;10.40;99.90;;;;;;5009743;28;20467;-63
2024/03/22 01:31:58;;;;;;;5.53;2.55;;;10.40;99.90;;;;;;5007303;28;20053;-63
2024/03/22 01:34:24;;;;;;;4.05;2.40;;;10.30;99.90;;;;;;5008814;28;20041;-63
2024/03/22 01:36:51;;;;;;;5.00;2.90;;;10.30;99.90;;;;;;5006546;28;20097;-63
2024/03/22 01:39:17;;;;;;;6.63;2.40;;;10.20;99.90;;;;;;5004191;28;20151;-63
2024/03/22 01:41:44;;;;;;;4.80;2.58;;;10.20;99.90;;;;;;5006224;28;20079;-63
2024/03/22 01:44:09;;;;;;;3.55;2.15;;;10.10;99.90;;;;;;5004402;28;20450;-63
2024/03/22 01:46:35;;;;;;;5.88;2.60;;;10.10;99.90;;;;;;5009722;28;20080;-63
2024/03/22 01:49:01;;;;;;;7.93;2.75;;;10.00;99.90;;;;;;5010161;28;20414;-63
2024/03/22 01:51:27;;;;;;;6.53;3.20;;;10.00;99.90;;;;;;5005014;28;20057;-63
2024/03/22 01:53:54;;;;;;;6.03;2.75;;;10.00;99.90;;;;;;5012744;28;20057;-64
2024/03/22 01:56:20;;;;;;;7.72;2.50;;;10.00;99.90;;;;;;5011556;28;20842;-63
2024/03/22 01:58:46;;;;;;;7.90;2.97;;;10.00;99.90;;;;;;5013275;28;20057;-63
2024/03/22 02:01:12;;;;;;;4.47;2.95;;;10.00;99.90;;;;;;5008666;28;20054;-63
2024/03/22 02:03:38;;;;;;;8.38;2.80;;;10.10;99.90;;;;;;5012091;28;20489;-64
2024/03/22 02:06:04;;;;;;;9.00;3.38;;;10.10;99.90;;;;;;5013422;28;20045;-64
2024/03/22 02:08:30;;;;;;;8.35;3.22;;;10.10;99.90;;;;;;5007408;28;20058;-64
2024/03/22 02:10:56;;;;;;;8.82;3.50;;;10.00;99.90;;;;;;5005716;28;20048;-63
2024/03/22 02:13:22;;;;;;;10.30;3.17;;;10.00;99.90;;;;;;5007287;28;20054;-63
2024/03/22 02:15:47;;;;;;;7.43;3.90;;;9.90;99.90;;;;;;5012584;28;20158;-64
2024/03/22 02:18:13;;;;;;;3.90;2.78;;;9.80;99.90;;;;;;5009365;28;20058;-63
2024/03/22 02:20:39;;;;;;;4.45;2.92;;;9.80;99.90;;;;;;5013017;28;20057;-64
2024/03/22 02:23:05;;;;;;;6.13;3.47;;;9.70;99.90;;;;;;5010566;28;20049;-64
2024/03/22 02:25:30;;;;;;;8.93;3.33;;;9.70;99.90;;;;;;5008689;28;20076;-63
2024/03/22 02:27:56;;;;;;;4.47;3.00;;;9.60;99.90;;;;;;5016401;28;20515;-64
2024/03/22 02:30:22;;;;;;;9.77;3.40;;;9.60;99.90;;;;;;5010130;28;20046;-64
2024/03/22 02:32:47;;;;;;;7.85;3.17;;;9.70;99.90;;;;;;5006802;28;20058;-64
2024/03/22 02:35:13;;;;;;;6.15;3.38;;;9.80;99.90;;;;;;5008900;28;20418;-64
2024/03/22 02:37:39;;;;;;;5.53;2.97;;;9.90;99.90;;;;;;5010191;28;20567;-64
2024/03/22 02:40:06;;;;;;;7.80;3.13;;;10.00;99.90;;;;;;5016625;28;20049;-64
2024/03/22 02:42:31;;;;;;;7.07;3.17;;;10.00;99.90;;;;;;5011803;28;20046;-64
2024/03/22 02:44:57;;;;;;;9.50;2.90;;;10.00;99.90;;;;;;5011975;28;20046;-64
2024/03/22 02:47:23;;;;;;;5.15;3.00;;;9.90;99.90;;;;;;5008660;28;20053;-64
2024/03/22 02:49:48;;;;;;;6.35;2.72;;;9.90;99.90;;;;;;5007199;28;20128;-63
2024/03/22 02:52:14;;;;;;;7.03;2.90;;;9.90;99.90;;;;;;5003426;28;20112;-64
2024/03/22 02:54:41;;;;;;;7.00;3.08;;;9.90;99.90;;;;;;5011205;28;20107;-63
2024/03/22 02:57:06;;;;;;;6.05;2.72;;;9.80;99.90;;;;;;5008241;28;20064;-64
2024/03/22 02:59:32;;;;;;;6.82;3.55;;;9.90;99.90;;;;;;5006021;28;20057;-64
2024/03/22 03:01:58;;;;;;;7.03;2.90;;;9.90;99.90;;;;;;5008853;28;20049;-63
2024/03/22 03:04:24;;;;;;;3.63;2.33;;;9.90;99.90;;;;;;5001113;28;20049;-64
2024/03/22 03:06:49;;;;;;;7.43;3.15;;;10.00;99.90;;;;;;5006673;28;20184;-63
2024/03/22 03:09:15;;;;;;;7.93;3.97;;;10.00;99.90;;;;;;5006766;28;20131;-64
2024/03/22 03:11:41;;;;;;;8.80;4.90;;;10.10;99.90;;;;;;5006032;28;20060;-64
2024/03/22 03:14:07;;;;;;;11.20;4.32;;;10.20;99.90;;;;;;5011519;28;20054;-64
2024/03/22 03:16:32;;;;;;;6.95;3.80;;;10.20;99.90;;;;;;5005208;28;20077;-63
2024/03/22 03:18:58;;;;;;;6.57;3.40;;;10.20;99.90;;;;;;5011197;28;20111;-63
2024/03/22 03:21:24;;;;;;;6.13;2.92;;;10.20;99.90;;;;;;5009119;28;20061;-63
2024/03/22 03:23:50;;;;;;;6.72;2.47;;;10.30;99.90;;;;;;5008505;28;20450;-64
2024/03/22 03:26:16;;;;;;;7.45;3.38;;;10.30;99.90;;;;;;5010430;28;20077;-64
2024/03/22 03:28:42;;;;;;;9.00;3.60;;;10.40;99.90;;;;;;5013129;28;20326;-63
2024/03/22 03:31:07;;;;;;;7.00;3.67;;;10.40;99.90;;;;;;5008576;28;20151;-63
2024/03/22 03:33:33;;;;;;;11.57;3.75;;;10.40;99.90;;;;;;5011659;28;20121;-64
2024/03/22 03:35:59;;;;;;;5.10;2.72;;;10.50;99.90;;;;;;5006840;28;20046;-63
2024/03/22 03:38:25;;;;;;;7.72;3.53;;;10.50;99.90;;;;;;5007904;28;20053;-63
2024/03/22 03:40:50;;;;;;;6.47;2.63;;;10.50;99.90;;;;;;5012432;28;20057;-63
2024/03/22 03:43:16;;;;;;;4.30;2.42;;;10.50;99.90;;;;;;5009942;28;20046;-63
2024/03/22 03:45:42;;;;;;;3.97;2.75;;;10.50;99.90;;;;;;5011411;28;20522;-63
2024/03/22 03:48:08;;;;;;;6.32;2.30;;;10.50;99.90;;;;;;5005740;28;20065;-63
2024/03/22 03:50:33;;;;;;;4.65;2.30;;;10.50;99.90;;;;;;5004704;28;20057;-63
2024/03/22 03:52:59;;;;;;;3.70;2.08;;;10.50;99.90;;;;;;5013184;28;20053;-63
2024/03/22 03:55:25;;;;;;;3.33;2.00;;;10.50;99.90;;;;;;5005433;28;20506;-63
2024/03/22 03:57:51;;;;;;;5.57;2.78;;;10.50;99.90;;;;;;5011171;28;20053;-63
2024/03/22 04:00:20;;;;;;;4.55;2.95;;;10.60;99.90;;;;;;5012482;28;20456;-63
2024/03/22 04:02:49;;;;;;;5.25;2.50;;;10.60;99.90;;;;;;5007404;28;20056;-63
2024/03/22 04:05:14;;;;;;;6.00;2.70;;;10.50;99.90;;;;;;5014164;28;20722;-63
2024/03/22 04:07:42;;;;;;;5.50;2.63;;;10.50;99.90;;;;;;5011836;28;20045;-63
2024/03/22 04:10:08;;;;;;;4.50;1.98;;;10.50;99.90;;;;;;5006909;28;20062;-63
2024/03/22 04:12:34;;;;;;;4.65;2.63;;;10.50;99.90;;;;;;5005347;28;20057;-63
2024/03/22 04:15:00;;;;;;;4.78;2.40;;;10.60;99.90;;;;;;5010875;28;20411;-63
2024/03/22 04:17:26;;;;;;;4.68;2.15;;;10.60;99.90;;;;;;5012428;28;20491;-64
2024/03/22 04:19:52;;;;;;;4.63;2.47;;;10.60;99.90;;;;;;4995959;28;20071;-64
2024/03/22 04:22:18;;;;;;;7.57;2.72;;;10.60;99.90;;;;;;5009844;28;20050;-63
2024/03/22 04:24:44;;;;;;;4.00;2.15;;;10.60;99.90;;;;;;5010188;28;20480;-64
2024/03/22 04:27:10;;;;;;;4.75;2.78;;;10.60;99.90;;;;;;5008531;28;20054;-64
2024/03/22 04:29:35;;;;;;;4.00;2.20;;;10.50;99.90;;;;;;5015403;28;20053;-63
2024/03/22 04:32:01;;;;;;;5.07;2.33;;;10.50;99.90;;;;;;5012777;28;20063;-64
2024/03/22 04:34:27;;;;;;;3.55;2.50;;;10.50;99.90;;;;;;5006280;28;20054;-64
2024/03/22 04:36:53;;;;;;;5.85;2.45;;;10.50;99.90;;;;;;5008506;28;20065;-64
2024/03/22 04:39:20;;;;;;;3.13;2.05;;;10.50;99.90;;;;;;5013577;28;20115;-64
2024/03/22 04:41:45;;;;;;;4.65;2.47;;;10.50;99.90;;;;;;5009261;28;20045;-64
2024/03/22 04:44:11;;;;;;;5.10;2.25;;;10.60;99.90;;;;;;5009977;28;20057;-64
2024/03/22 04:46:37;;;;;;;4.68;2.42;;;10.60;99.90;;;;;;5010633;28;20092;-64
2024/03/22 04:49:02;;;;;;;4.20;1.85;;;10.60;99.90;;;;;;5008450;28;20045;-64
2024/03/22 04:51:28;;;;;;;3.15;2.10;;;10.50;99.90;;;;;;5013650;28;20064;-64
2024/03/22 04:53:54;;;;;;;6.30;2.47;;;10.50;99.90;;;;;;5008084;28;20061;-64
2024/03/22 04:56:20;;;;;;;3.90;2.10;;;10.50;99.90;;;;;;5008484;28;20096;-63
2024/03/22 04:58:45;;;;;;;5.75;2.55;;;10.50;99.90;;;;;;5008083;28;20100;-63
2024/03/22 05:01:12;;;;;;;5.32;3.03;;;10.60;99.90;;;;;;5009506;28;20095;-63
2024/03/22 05:03:38;;;;;;;4.40;3.05;;;10.60;99.90;;;;;;5015460;28;20048;-63
2024/03/22 05:06:06;;;;;;;5.78;3.00;;;10.60;99.90;;;;;;5014624;28;20045;-63
2024/03/22 05:08:32;;;;;;;7.07;2.38;;;10.50;99.90;;;;;;5007135;28;20705;-63
2024/03/22 05:10:58;;;;;;;6.32;2.80;;;10.60;99.90;;;;;;5001747;28;20050;-63
2024/03/22 05:13:23;;;;;;;6.32;2.42;;;10.50;99.90;;;;;;5009410;28;20515;-63
2024/03/22 05:15:49;;;;;;;8.50;2.80;;;10.50;99.90;;;;;;5011597;28;20776;-63
2024/03/22 05:18:15;;;;;;;4.82;2.58;;;10.50;99.90;;;;;;5006528;28;20056;-63
2024/03/22 05:20:41;;;;;;;6.18;2.22;;;10.50;99.90;;;;;;5007092;28;20642;-63
2024/03/22 05:23:06;;;;;;;3.00;2.40;;;10.50;99.90;;;;;;5009845;28;20072;-64
2024/03/22 05:25:32;;;;;;;6.95;2.60;;;10.50;99.90;;;;;;5006083;28;20058;-64
2024/03/22 05:27:58;;;;;;;7.50;2.50;;;10.50;99.90;;;;;;5007362;28;20061;-64
2024/03/22 05:30:23;;;;;;;4.95;2.78;;;10.50;99.90;;;;;;5014305;28;20049;-64
2024/03/22 05:32:50;;;;;;;5.03;2.40;;;10.50;99.90;;;;;;5014400;28;20049;-63
2024/03/22 05:35:16;;;;;;;4.05;2.30;;;10.50;99.90;;;;;;4997043;28;20419;-63
2024/03/22 05:37:42;;;;;;;6.25;2.65;;;10.50;99.90;;;;;;5014844;28;20049;-63
2024/03/22 05:40:09;;;;;;;6.80;3.00;;;10.50;99.90;;;;;;5014898;28;20057;-64
2024/03/22 05:42:34;;;;;;;7.90;3.10;;;10.50;99.90;;;;;;5015343;28;20530;-64
2024/03/22 05:45:00;;;;;;;7.03;3.05;;;10.50;99.90;;;;;;5015008;28;20124;-64
2024/03/22 05:47:26;;;;;;;7.57;3.10;;;10.50;99.90;;;;;;5012017;28;20045;-64
2024/03/22 05:49:52;;;;;;;7.88;3.40;;;10.50;99.90;;;;;;5012102;28;20060;-64
2024/03/22 05:52:18;;;;;;;8.25;3.22;;;10.50;99.90;;;;;;5011162;28;20570;-63
2024/03/22 05:54:44;;;;;;;8.18;3.55;;;10.50;99.90;;;;;;5010537;28;20053;-63
2024/03/22 05:57:10;;;;;;;7.80;3.22;;;10.60;99.90;;;;;;5013829;28;20053;-64
2024/03/22 05:59:36;;;;;;;8.60;3.25;;;10.60;99.90;;;;;;5013913;28;20077;-64
2024/03/22 06:02:02;;;;;;;10.95;3.25;;;10.60;99.90;;;;;;5011314;28;20038;-63
2024/03/22 06:04:28;;;;;;;3.22;2.78;;;10.70;99.90;;;;;;5010579;28;20061;-63
2024/03/22 06:06:59;;;;;;;4.03;3.13;;;10.80;99.90;;;;;;5013393;28;20483;-63
2024/03/22 06:09:45;;;;;;;4.15;3.38;;;10.90;99.90;;;;;;5004822;28;20069;-63
2024/03/22 06:12:13;;;;;;;4.45;3.08;;;11.00;99.90;;;;;;5009480;28;20102;-64
2024/03/22 06:14:40;;;;;;;5.90;3.28;;;11.10;99.90;;;;;;5005416;28;20136;-63
2024/03/22 06:17:06;;;;;;;6.30;3.72;;;11.10;99.90;;;;;;5008244;28;20061;-64
2024/03/22 06:19:31;;;;;;;4.75;3.25;;;11.30;99.90;;;;;;5009846;28;20055;-63
2024/03/22 06:21:57;;;;;;;6.07;3.28;;;11.40;99.90;;;;;;5013611;28;20053;-64
2024/03/22 06:24:23;;;;;;;6.45;3.42;;;11.40;99.90;;;;;;5001624;28;20049;-64
2024/03/22 06:26:49;;;;;;;5.65;3.30;;;11.60;99.90;;;;;;5007770;28;20044;-64
2024/03/22 06:29:18;;;;;;;4.18;3.13;;;11.70;99.90;;;;;;5010414;28;20461;-64
2024/03/22 06:31:44;;;;;;;5.40;3.17;;;11.80;99.90;;;;;;5009626;28;20045;-64
2024/03/22 06:34:11;;;;;;;5.10;3.67;;;11.90;99.90;;;;;;5013382;28;20050;-64
2024/03/22 06:36:36;;;;;;;8.60;3.78;;;12.00;99.90;;;;;;5015667;28;20115;-63
2024/03/22 06:39:06;;;;;;;6.05;4.03;;;12.00;99.90;;;;;;5015643;28;20061;-63
2024/03/22 06:41:32;;;;;;;7.43;4.15;;;12.00;99.90;;;;;;5016363;28;20507;-63
2024/03/22 06:43:58;;;;;;;8.88;3.75;;;12.20;99.90;;;;;;5013665;28;20479;-58
2024/03/22 06:46:24;;;;;;;7.15;3.95;;;12.30;99.90;;;;;;5013200;28;20495;-61
2024/03/22 06:48:50;;;;;;;7.45;3.70;;;12.50;99.90;;;;;;5007991;28;20041;-58
2024/03/22 06:51:16;;;;;;;7.43;3.83;;;12.50;99.90;;;;;;5012236;28;20046;-63
2024/03/22 06:53:42;;;;;;;8.07;3.83;;;12.70;99.90;;;;;;5015738;28;20060;-63
2024/03/22 06:56:11;;;;;;;7.53;4.03;;;12.70;99.90;;;;;;5008981;28;20529;-63
2024/03/22 06:58:40;;;;;;;9.18;4.38;;;12.60;99.90;;;;;;5013463;28;20052;-63
2024/03/22 07:01:06;;;;;;;9.23;5.80;;;12.70;99.90;;;;;;5015253;28;20057;-65
2024/03/22 07:03:33;;;;;;;8.88;4.55;;;12.70;99.90;;;;;;5009748;28;20049;-61
2024/03/22 07:05:59;;;;;;;6.22;3.92;;;12.80;99.90;;;;;;5007097;28;20387;-61
2024/03/22 07:08:24;;;;;;;6.78;4.05;;;12.80;99.90;;;;;;5015332;28;20053;-63
2024/03/22 07:10:52;;;;;;;10.07;4.80;;;12.80;99.90;;;;;;5011201;28;20046;-63
2024/03/22 07:13:18;;;;;;;5.22;3.88;;;12.80;99.90;;;;;;5012841;28;20061;-63
2024/03/22 07:15:45;;;;;;;8.98;4.25;;;12.90;99.90;;;;;;5012435;28;20049;-62
2024/03/22 07:18:11;;;;;;;9.90;6.32;;;13.00;99.90;;;;;;5004192;28;20587;-64
2024/03/22 07:20:36;;;;;;;8.85;5.90;;;13.00;99.90;;;;;;5004182;28;20056;-64
2024/03/22 07:23:04;;;;;;;7.43;4.45;;;13.00;99.90;;;;;;5004780;28;20057;-64
2024/03/22 07:25:30;;;;;;;6.63;4.28;;;12.90;99.90;;;;;;5008500;28;20041;-63
2024/03/22 07:27:56;;;;;;;8.05;4.72;;;12.70;99.90;;;;;;5003397;28;20077;-64
2024/03/22 07:30:31;;;;;;;6.22;4.28;;;12.50;99.90;;;;;;5022350;23;20569;-61
2024/03/22 07:32:56;;;;;;;6.80;4.50;;;12.40;99.90;;;;;;4988645;28;20053;-60
2024/03/22 07:35:22;;;;;;;7.90;4.57;;;12.20;99.90;;;;;;4987062;28;20125;-63
2024/03/22 07:37:48;;;;;;;7.25;4.07;;;12.00;99.90;;;;;;4987569;28;20081;-63
2024/03/22 07:40:14;;;;;;;6.35;4.20;;;11.90;99.90;;;;;;4989184;28;20061;-64
2024/03/22 07:42:40;;;;;;;16.85;7.35;;;11.90;99.90;;;;;;4985628;28;20085;-64
2024/03/22 07:45:06;;;;;;;9.30;5.50;;;11.90;99.90;;;;;;4988543;28;20069;-61
2024/03/22 07:47:32;;;;;;;7.82;4.28;;;11.90;99.90;;;;;;4984932;28;20491;-64
2024/03/22 07:49:58;;;;;;;4.70;3.42;;;12.00;99.90;;;;;;4989855;28;20053;-62
2024/03/22 07:52:24;;;;;;;7.80;4.10;;;12.00;99.90;;;;;;4987739;28;20062;-63
2024/03/22 07:54:50;;;;;;;4.95;3.65;;;12.00;99.90;;;;;;4990151;28;20466;-63
2024/03/22 07:57:15;;;;;;;7.38;4.00;;;12.00;99.90;;;;;;4986990;28;20061;-64
2024/03/22 07:59:43;;;;;;;6.22;3.30;;;12.00;99.90;;;;;;4995457;28;20064;-64
2024/03/22 08:02:09;;;;;;;8.10;3.53;;;12.00;99.90;;;;;;4987721;28;20062;-62
2024/03/22 08:04:35;;;;;;;5.50;3.17;;;12.10;99.90;;;;;;5002174;28;20831;-62
2024/03/22 08:07:01;;;;;;;7.45;3.63;;;12.10;99.90;;;;;;4987954;28;20129;-63
2024/03/22 08:09:27;;;;;;;8.05;4.07;;;12.10;99.90;;;;;;4987269;28;20072;-63
2024/03/22 08:11:52;;;;;;;6.68;3.28;;;12.10;99.90;;;;;;4996758;28;20469;-62
2024/03/22 08:14:18;;;;;;;9.10;4.07;;;12.20;99.90;;;;;;4991507;28;20049;-63
2024/03/22 08:16:44;;;;;;;5.03;3.20;;;12.30;99.90;;;;;;4986935;28;20077;-67
2024/03/22 08:19:10;;;;;;;4.78;3.58;;;12.30;99.90;;;;;;4982780;28;20062;-63
2024/03/22 08:21:36;;;;;;;4.80;3.63;;;12.30;99.90;;;;;;5004281;23;20041;-64
2024/03/22 08:24:02;;;;;;;5.53;3.83;;;12.40;99.90;;;;;;5002175;28;20068;-63
2024/03/22 08:26:28;;;;;;;7.18;3.72;;;12.50;99.90;;;;;;5003161;28;20042;-64
2024/03/22 08:28:53;;;;;;;3.75;3.20;;;12.50;99.90;;;;;;5006226;28;20103;-63
2024/03/22 08:31:25;;;;;;;6.15;3.42;;;12.60;99.90;;;;;;5005235;28;20045;-61
2024/03/22 08:33:52;;;;;;;9.38;3.53;;;12.60;99.90;;;;;;5002680;28;20049;-63
2024/03/22 08:36:17;;;;;;;6.00;3.83;;;12.70;99.90;;;;;;5008980;28;20045;-63
2024/03/22 08:38:43;;;;;;;9.60;3.80;;;12.80;99.90;;;;;;5023145;23;20060;-63
2024/03/22 08:41:09;;;;;;;5.10;3.30;;;12.80;99.90;;;;;;5005417;28;20056;-63
2024/03/22 08:43:34;;;;;;;6.25;3.60;;;12.80;99.90;;;;;;5007391;28;20119;-63
2024/03/22 08:46:00;;;;;;;3.95;3.20;;;12.80;99.90;;;;;;5008252;28;20112;-62
2024/03/22 08:48:26;;;;;;;5.80;2.80;;;12.90;99.90;;;;;;5005703;28;20053;-63
2024/03/22 08:50:52;;;;;;;7.10;3.85;;;13.00;99.90;;;;;;5006343;28;20057;-61
2024/03/22 08:53:17;;;;;;;7.05;4.00;;;13.10;99.90;;;;;;5005893;28;20369;-59
2024/03/22 08:55:48;;;;;;;4.90;3.25;;;13.10;99.90;;;;;;5006802;28;20060;-63
2024/03/22 08:58:14;;;;;;;;;;;13.20;99.90;;;;;;5002229;28;20406;-63
2024/03/22 09:00:41;;;;;;;5.20;3.15;;;13.30;99.90;;;;;;5004721;28;20380;-62
2024/03/22 09:03:07;;;;;;;7.45;3.33;;;13.30;99.90;;;;;;5009060;28;20084;-60
2024/03/22 09:05:33;;;;;;;3.63;2.85;;;13.40;99.90;;;;;;5007666;28;20152;-62
2024/03/22 09:08:00;;;;;;;4.25;2.78;;;13.40;99.90;;;;;;5004021;28;20057;-61
2024/03/22 09:10:26;;;;;;;3.08;2.50;;;13.50;99.90;;;;;;5001043;28;20052;-62
2024/03/22 09:12:52;;;;;;;3.90;2.40;;;13.70;99.90;;;;;;5006693;28;20057;-61
2024/03/22 09:15:17;;;;;;;4.60;2.50;;;13.80;99.90;;;;;;5000398;28;20057;-60
2024/03/22 09:17:43;;;;;;;3.63;2.03;;;13.90;99.90;;;;;;5004017;28;20128;-62
2024/03/22 09:20:10;;;;;;;6.28;2.50;;;14.00;99.90;;;;;;5004112;28;20058;-62
2024/03/22 09:22:36;;;;;;;3.65;2.28;;;14.20;99.90;;;;;;5002691;28;20396;-61
2024/03/22 09:25:02;;;;;;;3.83;2.35;;;14.20;99.90;;;;;;5005084;28;20053;-62
2024/03/22 09:27:28;;;;;;;4.78;2.30;;;14.30;99.90;;;;;;5004114;28;20129;-61
2024/03/22 09:29:53;;;;;;;5.85;2.55;;;14.30;99.90;;;;;;4999232;28;20479;-62
2024/03/22 09:32:19;;;;;;;5.60;2.55;;;14.40;99.90;;;;;;4999932;28;20061;-60
2024/03/22 09:34:45;;;;;;;5.80;2.83;;;14.50;99.90;;;;;;5004545;28;20049;-62
2024/03/22 09:37:11;;;;;;;6.85;2.90;;;14.50;99.90;;;;;;5007676;28;20060;-62
2024/03/22 09:39:37;;;;;;;4.57;2.70;;;14.60;99.90;;;;;;5008073;28;20061;-61
2024/03/22 09:42:06;;;;;;;4.18;2.53;;;14.80;99.90;;;;;;5008806;28;20046;-61
2024/03/22 09:44:32;;;;;;;6.60;2.75;;;14.80;99.90;;;;;;5009529;28;20053;-59
2024/03/22 09:46:59;;;;;;;4.88;2.92;;;14.90;99.90;;;;;;5004100;28;20085;-61
2024/03/22 09:49:25;;;;;;;4.10;3.00;;;14.90;99.90;;;;;;5006129;28;20054;-61
2024/03/22 09:51:52;;;;;;;4.47;2.47;;;15.00;99.90;;;;;;5009152;28;20099;-60
2024/03/22 09:54:18;;;;;;;4.05;2.80;;;15.10;99.90;;;;;;5010741;28;20053;-61
2024/03/22 09:56:47;;;;;;;7.15;2.72;;;15.10;99.90;;;;;;5004663;28;20061;-61
2024/03/22 09:59:13;;;;;;;4.60;3.00;;;15.30;99.90;;;;;;4996959;28;20053;-62
2024/03/22 10:01:41;;;;;;;7.15;3.00;;;15.40;99.90;;;;;;5007955;28;20065;-63
2024/03/22 10:04:09;;;;;;;6.30;2.58;;;15.40;99.90;;;;;;5006215;28;20103;-63
2024/03/22 10:06:35;;;;;;;6.20;2.60;;;15.50;99.90;;;;;;5005591;28;20045;-61
2024/03/22 10:09:01;;;;;;;5.43;2.65;;;15.70;99.90;;;;;;5003668;28;20398;-62
2024/03/22 10:11:27;;;;;;;6.55;2.17;;;15.80;99.90;;;;;;5004960;28;20042;-62
2024/03/22 10:13:55;;;;;;;8.52;3.05;;;15.90;99.90;;;;;;5008186;28;20057;-61
2024/03/22 10:16:21;;;;;;;6.28;2.17;;;16.00;99.90;;;;;;5003532;28;20103;-62
2024/03/22 10:18:48;;;;;;;4.97;2.28;;;16.10;99.90;;;;;;5007633;28;20053;-60
2024/03/22 10:21:21;;;;;;;3.42;2.15;;;16.20;99.90;;;;;;5008228;28;20053;-61
2024/03/22 10:23:48;;;;;;;5.32;2.25;;;16.20;99.90;;;;;;5007319;28;20477;-60
2024/03/22 10:26:15;;;;;;;3.15;1.83;;;16.20;99.90;;;;;;5006049;28;20045;-62
2024/03/22 10:28:47;;;;;;;4.30;1.90;;;16.10;99.90;;;;;;4987543;28;20050;-62
2024/03/22 10:31:13;;;;;;;3.92;1.67;;;16.20;99.90;;;;;;5010373;28;20053;-58
2024/03/22 10:33:41;;;;;;;3.88;1.63;;;16.20;99.90;;;;;;5007806;28;20050;-60
2024/03/22 10:36:07;;;;;;;6.15;2.03;;;16.10;99.90;;;;;;5006052;28;20064;-61
2024/03/22 10:38:37;;;;;;;3.65;1.90;;;16.10;99.90;;;;;;5007335;28;20045;-61
2024/03/22 10:41:04;;;;;;;4.55;1.70;;;16.10;99.90;;;;;;5006419;28;20057;-62
2024/03/22 10:43:31;;;;;;;3.33;1.45;;;15.90;99.90;;;;;;5008048;28;20049;-61
2024/03/22 10:46:01;;;;;;;6.68;1.85;;;15.90;99.90;;;;;;5009102;28;20045;-62
2024/03/22 10:48:30;;;;;;;2.75;1.48;;;15.90;99.90;;;;;;5007491;28;20387;-63
2024/03/22 10:51:00;;;;;;;3.10;1.45;;;15.90;99.90;;;;;;5008423;28;20057;-61
2024/03/22 10:53:28;;;;;;;2.97;1.63;;;16.00;99.90;;;;;;5011079;28;20049;-61
2024/03/22 10:55:59;;;;;;;2.47;1.40;;;16.00;99.90;;;;;;5007746;28;20057;-61
2024/03/22 10:58:25;;;;;;;3.28;1.60;;;16.00;99.90;;;;;;5007536;28;20057;-63
2024/03/22 11:00:52;;;;;;;3.83;1.90;;;16.10;99.90;;;;;;5007720;28;20115;-62
2024/03/22 11:03:23;;;;;;;4.28;1.42;;;16.10;99.90;;;;;;5007103;28;20045;-60
2024/03/22 11:05:50;;;;;;;2.50;1.70;;;16.20;99.90;;;;;;5013475;28;20048;-62
2024/03/22 11:08:27;;;;;;;6.05;1.67;;;16.30;99.90;;;;;;5010636;28;20417;-62
2024/03/22 11:10:53;;;;;;;8.40;1.60;;;16.50;99.90;;;;;;5004589;28;20050;-62
2024/03/22 11:13:20;;;;;;;1.30;1.08;;;16.60;99.90;;;;;;5002853;28;20095;-64
2024/03/22 11:15:52;;;;;;;3.25;0.95;;;16.80;99.90;;;;;;5007445;28;20509;-64
2024/03/22 11:18:18;;;;;;;2.70;1.35;;;16.90;99.90;;;;;;5009022;28;20486;-64
2024/03/22 11:20:47;;;;;;;2.00;1.27;;;17.00;99.90;;;;;;4997529;28;20088;-64
2024/03/22 11:23:13;;;;;;;2.78;1.17;;;17.10;99.90;;;;;;5010000;28;20049;-64
2024/03/22 11:25:38;;;;;;;3.30;1.10;;;17.20;99.90;;;;;;5007348;28;20517;-64
2024/03/22 11:28:05;;;;;;;1.02;0.77;;;17.30;99.90;;;;;;5009240;28;20483;-64
2024/03/22 11:30:32;;;;;;;2.55;1.00;;;17.40;99.90;;;;;;5008764;28;20050;-64
2024/03/22 11:33:01;;;;;;;3.63;0.98;;;17.40;99.90;;;;;;5008940;28;20049;-64
2024/03/22 11:35:27;;;;;;;2.25;1.35;;;17.40;99.90;;;;;;5008513;28;20056;-64
2024/03/22 11:37:53;;;;;;;2.47;1.40;;;17.40;99.90;;;;;;5008786;28;20079;-64
2024/03/22 11:40:19;;;;;;;1.95;0.90;;;17.40;99.90;;;;;;5005328;28;20053;-64
2024/03/22 11:42:47;;;;;;;3.30;1.27;;;17.40;99.90;;;;;;5005952;28;20049;-64
2024/03/22 11:45:16;;;;;;;3.50;1.50;;;17.40;99.90;;;;;;5007501;28;20061;-64
2024/03/22 11:47:42;;;;;;;3.67;1.35;;;17.40;99.90;;;;;;5009227;28;20046;-64
2024/03/22 11:50:08;;;;;;;3.67;1.40;;;17.30;99.90;;;;;;5005449;28;20050;-64
2024/03/22 11:52:35;;;;;;;2.22;1.35;;;17.30;99.90;;;;;;5010987;28;20057;-64
2024/03/22 11:55:01;;;;;;;3.92;1.27;;;17.30;99.90;;;;;;5007205;28;20045;-64
2024/03/22 11:57:28;;;;;;;4.53;1.35;;;17.30;99.90;;;;;;5010062;28;20100;-64
2024/03/22 11:59:59;;;;;;;1.63;1.27;;;17.30;99.90;;;;;;5008268;28;20056;-63
2024/03/22 12:02:25;;;;;;;1.95;1.58;;;17.50;99.90;;;;;;5010142;28;20052;-63
2024/03/22 12:04:51;;;;;;;2.67;1.33;;;17.60;99.90;;;;;;5009422;28;20045;-64
2024/03/22 12:07:18;;;;;;;1.67;1.20;;;17.70;99.90;;;;;;5010048;28;20073;-64
2024/03/22 12:09:44;;;;;;;1.42;1.00;;;17.70;99.90;;;;;;5006939;28;20433;-64
2024/03/22 12:12:12;;;;;;;4.63;1.90;;;17.70;99.90;;;;;;5005679;28;20057;-64
2024/03/22 12:14:38;;;;;;;2.33;1.08;;;17.80;99.90;;;;;;5006886;28;20064;-64
2024/03/22 12:17:05;;;;;;;2.35;1.00;;;17.70;99.90;;;;;;5003569;28;20417;-64
2024/03/22 12:19:31;;;;;;;2.88;1.02;;;17.80;99.90;;;;;;5007221;28;20056;-64
2024/03/22 12:21:57;;;;;;;5.47;1.35;;;17.80;99.90;;;;;;5006395;28;20478;-64
2024/03/22 12:24:23;;;;;;;0.88;0.82;;;17.90;99.90;;;;;;5008068;28;20045;-63
2024/03/22 12:26:49;;;;;;;2.30;1.20;;;18.00;99.90;;;;;;5008027;28;20054;-64
2024/03/22 12:29:16;;;;;;;1.88;1.13;;;18.00;99.90;;;;;;5006576;28;20050;-64
2024/03/22 12:31:43;;;;;;;2.53;1.10;;;18.10;99.90;;;;;;5006448;28;20410;-64
2024/03/22 12:34:08;;;;;;;1.50;1.02;;;18.20;99.90;;;;;;5008617;28;20052;-64
2024/03/22 12:36:34;;;;;;;1.55;0.93;;;18.20;99.90;;;;;;5009248;28;20049;-64
2024/03/22 12:39:00;;;;;;;2.08;0.88;;;18.20;99.90;;;;;;5002231;28;20056;-64
2024/03/22 12:41:28;;;;;;;1.48;0.70;;;18.30;99.90;;;;;;5003640;28;20053;-64
2024/03/22 12:43:55;;;;;;;4.13;0.82;;;18.30;99.90;;;;;;5002840;28;20046;-64